0TE8 weather

Texas World Speedway Helistop Nr 1 Heliport
College Station, Texas, United States

Public forecast

Using degrees Fahrenheit for public forecast. Weather courtesy of forecast.io.

METAR (pilot weather report)

Closest report is Easterwood Field, 7.9 nm (14.5 km) WNW. Retrieved 2019/07/20 18:53 UTC (32 minutes ago):

KCLL 201853Z 15012G15KT 10SM FEW048 34/22 A2996 RMK AO2 SLP140 T03440222

TAF (pilot weather forecast)

Closest forecast is Easterwood Field, 7.9 nm (14.5 km) WNW. Retrieved 2019/07/20 18:27 UTC (58 minutes ago):

TAF KCLL 201724Z 2018/2118 17010KT P6SM SCT035 FM202100 16011KT P6SM FEW035 SCT250 FM210800 18005KT P6SM SCT015 FM211000 VRB04KT P6SM SCT008 BKN015 FM211500 19007KT P6SM SCT025